PWSweather.com
Personal Weather Stations
Station Observations
K4FB1
Clubhouse Heritage, Lakeland, FL 33812

Clubhouse HeritageLakeland, FL 33812

Lat: 27.969224, Lon: -81.897769

Elevation: 145

Station Type: Davis Vantage Pro2

http://www.ClubhouseWX.com

High Low Average
Temperature 78.1°F25.6°C 62.8°F17.1°C 71.7°F22.1°C
Dew Point 63.1°F17.3°C -39.4°F-39.7°C 9.5°F-12.5°C
Winds 5.0 mph 8.0 kmh Calm Calm 2.0 mph SE3.2 kmh SE
Wind Gusts 16.0 mph25.7 kmh -- 5.0 mph8.0 kmh
Humidity 63% 0% 23%
Pressure 30.09 in1019.0 mb 29.94 in1013.9 mb -
Precipitation 0.34 in8.6 mm - -
Hour Temp Dew Point Humidity Winds Wind Gusts Pressure Precip Precip Rate Daily Precip Total
12:00 AM 76.0°F24.4°C -30.0°F-34.4°C 0% 4.0 mph SW6.4 kmh SW 12.0 mph19.3 kmh 29.96 in1014.6 mb 0.00 in0.0 mm 0.00 in0.0 mm 0.00 in0.0 mm
12:05 AM 76.0°F24.4°C -30.0°F-34.4°C 0% 3.0 mph SW4.8 kmh SW 9.0 mph14.5 kmh 29.95 in1014.2 mb 0.00 in0.0 mm 0.00 in0.0 mm 0.00 in0.0 mm
12:10 AM 75.9°F24.4°C -30.0°F-34.4°C 0% 3.0 mph SW4.8 kmh SW 9.0 mph14.5 kmh 29.95 in1014.2 mb 0.00 in0.0 mm 0.00 in0.0 mm 0.00 in0.0 mm
12:15 AM 76.0°F24.4°C -30.0°F-34.4°C 0% 3.0 mph SW4.8 kmh SW 9.0 mph14.5 kmh 29.95 in1014.2 mb 0.00 in0.0 mm 0.00 in0.0 mm 0.00 in0.0 mm
12:20 AM 75.9°F24.4°C -30.0°F-34.4°C 0% 3.0 mph SW4.8 kmh SW 8.0 mph12.9 kmh 29.95 in1014.2 mb 0.00 in0.0 mm 0.00 in0.0 mm 0.00 in0.0 mm
12:25 AM 75.9°F24.4°C -30.0°F-34.4°C 0% 3.0 mph SW4.8 kmh SW 9.0 mph14.5 kmh 29.95 in1014.2 mb 0.00 in0.0 mm 0.00 in0.0 mm 0.00 in0.0 mm
12:30 AM 75.9°F24.4°C -30.0°F-34.4°C 0% 3.0 mph SW4.8 kmh SW 9.0 mph14.5 kmh 29.95 in1014.2 mb 0.00 in0.0 mm 0.00 in0.0 mm 0.00 in0.0 mm
12:35 AM 75.9°F24.4°C -30.0°F-34.4°C 0% 4.0 mph SW6.4 kmh SW 8.0 mph12.9 kmh 29.95 in1014.2 mb 0.00 in0.0 mm 0.00 in0.0 mm 0.00 in0.0 mm
12:40 AM 75.9°F24.4°C -30.0°F-34.4°C 0% 4.0 mph SW6.4 kmh SW 8.0 mph12.9 kmh 29.95 in1014.2 mb 0.00 in0.0 mm 0.00 in0.0 mm 0.00 in0.0 mm
12:45 AM 75.9°F24.4°C -30.0°F-34.4°C 0% 3.0 mph SW4.8 kmh SW 7.0 mph11.3 kmh 29.95 in1014.2 mb 0.00 in0.0 mm 0.00 in0.0 mm 0.00 in0.0 mm
12:50 AM 75.9°F24.4°C -30.0°F-34.4°C 0% 3.0 mph SW4.8 kmh SW 9.0 mph14.5 kmh 29.95 in1014.2 mb 0.00 in0.0 mm 0.00 in0.0 mm 0.00 in0.0 mm
12:55 AM 75.9°F24.4°C -30.0°F-34.4°C 0% 4.0 mph SW6.4 kmh SW 9.0 mph14.5 kmh 29.95 in1014.2 mb 0.00 in0.0 mm 0.00 in0.0 mm 0.00 in0.0 mm
01:00 AM 76.0°F24.4°C -30.0°F-34.4°C 0% 4.0 mph WSW6.4 kmh WSW 9.0 mph14.5 kmh 29.95 in1014.2 mb 0.04 in1.0 mm 0.04 in1.0 mm 0.04 in1.0 mm
01:05 AM 75.3°F24.1°C -30.0°F-34.4°C 0% 4.0 mph W6.4 kmh W 9.0 mph14.5 kmh 29.95 in1014.2 mb 0.07 in1.8 mm 0.36 in9.1 mm 0.07 in1.8 mm
01:10 AM 74.7°F23.7°C -30.0°F-34.4°C 0% 3.0 mph WSW4.8 kmh WSW 9.0 mph14.5 kmh 29.95 in1014.2 mb 0.10 in2.5 mm 0.36 in9.1 mm 0.10 in2.5 mm
01:15 AM 74.2°F23.4°C -30.0°F-34.4°C 0% 3.0 mph WSW4.8 kmh WSW 9.0 mph14.5 kmh 29.95 in1014.2 mb 0.14 in3.6 mm 0.48 in12.2 mm 0.14 in3.6 mm
01:20 AM 74.1°F23.4°C -30.0°F-34.4°C 0% 3.0 mph SW4.8 kmh SW 6.0 mph9.7 kmh 29.95 in1014.2 mb 0.18 in4.6 mm 0.48 in12.2 mm 0.18 in4.6 mm
01:25 AM 74.2°F23.4°C -30.0°F-34.4°C 0% 3.0 mph SW4.8 kmh SW 7.0 mph11.3 kmh 29.95 in1014.2 mb 0.18 in4.6 mm 0.00 in0.0 mm 0.18 in4.6 mm
01:30 AM 74.2°F23.4°C -30.0°F-34.4°C 0% 3.0 mph SW4.8 kmh SW 8.0 mph12.9 kmh 29.95 in1014.2 mb 0.18 in4.6 mm 0.00 in0.0 mm 0.18 in4.6 mm
01:35 AM 74.4°F23.6°C -30.0°F-34.4°C 0% 3.0 mph SW4.8 kmh SW 8.0 mph12.9 kmh 29.95 in1014.2 mb 0.18 in4.6 mm 0.00 in0.0 mm 0.18 in4.6 mm
01:40 AM 74.5°F23.6°C -30.0°F-34.4°C 0% 3.0 mph SW4.8 kmh SW 6.0 mph9.7 kmh 29.95 in1014.2 mb 0.18 in4.6 mm 0.00 in0.0 mm 0.18 in4.6 mm
01:45 AM 74.6°F23.7°C -30.0°F-34.4°C 0% 3.0 mph SW4.8 kmh SW 6.0 mph9.7 kmh 29.95 in1014.2 mb 0.19 in4.8 mm 0.12 in3.0 mm 0.19 in4.8 mm
01:50 AM 74.7°F23.7°C -30.0°F-34.4°C 0% 2.0 mph SW3.2 kmh SW 5.0 mph8.0 kmh 29.94 in1013.9 mb 0.19 in4.8 mm 0.00 in0.0 mm 0.19 in4.8 mm
01:55 AM 74.8°F23.8°C -30.0°F-34.4°C 0% 2.0 mph SW3.2 kmh SW 6.0 mph9.7 kmh 29.94 in1013.9 mb 0.19 in4.8 mm 0.00 in0.0 mm 0.19 in4.8 mm
02:00 AM 74.9°F23.8°C -30.0°F-34.4°C 0% 2.0 mph SSW3.2 kmh SSW 6.0 mph9.7 kmh 29.94 in1013.9 mb 0.14 in3.6 mm 0.00 in0.0 mm 0.19 in4.8 mm
02:05 AM 75.0°F23.9°C -30.0°F-34.4°C 0% 2.0 mph SW3.2 kmh SW 6.0 mph9.7 kmh 29.94 in1013.9 mb 0.12 in3.0 mm 0.00 in0.0 mm 0.19 in4.8 mm
02:10 AM 75.0°F23.9°C -30.0°F-34.4°C 0% 2.0 mph SW3.2 kmh SW 5.0 mph8.0 kmh 29.94 in1013.9 mb 0.09 in2.3 mm 0.00 in0.0 mm 0.19 in4.8 mm
02:15 AM 75.0°F23.9°C -30.0°F-34.4°C 0% 2.0 mph SSW3.2 kmh SSW 5.0 mph8.0 kmh 29.94 in1013.9 mb 0.05 in1.3 mm 0.00 in0.0 mm 0.19 in4.8 mm
02:20 AM 75.0°F23.9°C -30.0°F-34.4°C 0% 2.0 mph SW3.2 kmh SW 6.0 mph9.7 kmh 29.94 in1013.9 mb 0.01 in0.3 mm 0.00 in0.0 mm 0.19 in4.8 mm
02:25 AM 75.1°F23.9°C -30.0°F-34.4°C 0% 2.0 mph SW3.2 kmh SW 6.0 mph9.7 kmh 29.95 in1014.2 mb 0.01 in0.3 mm 0.00 in0.0 mm 0.19 in4.8 mm
02:30 AM 75.1°F23.9°C -30.0°F-34.4°C 0% 1.0 mph SW1.6 kmh SW 5.0 mph8.0 kmh 29.94 in1013.9 mb 0.01 in0.3 mm 0.00 in0.0 mm 0.19 in4.8 mm
02:35 AM 75.1°F23.9°C -30.0°F-34.4°C 0% 1.0 mph SW1.6 kmh SW 5.0 mph8.0 kmh 29.94 in1013.9 mb 0.01 in0.3 mm 0.00 in0.0 mm 0.19 in4.8 mm
02:40 AM 75.1°F23.9°C -30.0°F-34.4°C 0% 2.0 mph SSW3.2 kmh SSW 6.0 mph9.7 kmh 29.94 in1013.9 mb 0.01 in0.3 mm 0.00 in0.0 mm 0.19 in4.8 mm
02:45 AM 75.1°F23.9°C -30.0°F-34.4°C 0% 2.0 mph SW3.2 kmh SW 6.0 mph9.7 kmh 29.94 in1013.9 mb 0.00 in0.0 mm 0.00 in0.0 mm 0.19 in4.8 mm
02:50 AM 75.1°F23.9°C -30.0°F-34.4°C 0% 2.0 mph SW3.2 kmh SW 5.0 mph8.0 kmh 29.94 in1013.9 mb 0.00 in0.0 mm 0.00 in0.0 mm 0.19 in4.8 mm
02:55 AM 75.1°F23.9°C -30.0°F-34.4°C 0% 2.0 mph SW3.2 kmh SW 5.0 mph8.0 kmh 29.95 in1014.2 mb 0.00 in0.0 mm 0.00 in0.0 mm 0.19 in4.8 mm
03:00 AM 75.1°F23.9°C -30.0°F-34.4°C 0% 1.0 mph SW1.6 kmh SW 5.0 mph8.0 kmh 29.95 in1014.2 mb 0.00 in0.0 mm 0.00 in0.0 mm 0.19 in4.8 mm
03:05 AM 75.1°F23.9°C -30.0°F-34.4°C 0% 1.0 mph SW1.6 kmh SW 4.0 mph6.4 kmh 29.95 in1014.2 mb 0.00 in0.0 mm 0.00 in0.0 mm 0.19 in4.8 mm
03:10 AM 75.2°F24.0°C -30.0°F-34.4°C 0% 2.0 mph SSW3.2 kmh SSW 6.0 mph9.7 kmh 29.95 in1014.2 mb 0.00 in0.0 mm 0.00 in0.0 mm 0.19 in4.8 mm
03:15 AM 75.2°F24.0°C -30.0°F-34.4°C 0% 2.0 mph SSW3.2 kmh SSW 6.0 mph9.7 kmh 29.94 in1013.9 mb 0.00 in0.0 mm 0.00 in0.0 mm 0.19 in4.8 mm
03:20 AM 75.2°F24.0°C -30.0°F-34.4°C 0% 2.0 mph SSW3.2 kmh SSW 5.0 mph8.0 kmh 29.95 in1014.2 mb 0.00 in0.0 mm 0.00 in0.0 mm 0.19 in4.8 mm
03:25 AM 75.3°F24.1°C -30.0°F-34.4°C 0% 2.0 mph SSW3.2 kmh SSW 5.0 mph8.0 kmh 29.95 in1014.2 mb 0.00 in0.0 mm 0.00 in0.0 mm 0.19 in4.8 mm
03:30 AM 75.2°F24.0°C -30.0°F-34.4°C 0% 2.0 mph SSW3.2 kmh SSW 5.0 mph8.0 kmh 29.95 in1014.2 mb 0.00 in0.0 mm 0.00 in0.0 mm 0.19 in4.8 mm
03:35 AM 75.2°F24.0°C -30.0°F-34.4°C 0% 1.0 mph SSW1.6 kmh SSW 4.0 mph6.4 kmh 29.95 in1014.2 mb 0.00 in0.0 mm 0.00 in0.0 mm 0.19 in4.8 mm
03:40 AM 75.3°F24.1°C -30.0°F-34.4°C 0% 2.0 mph SW3.2 kmh SW 7.0 mph11.3 kmh 29.95 in1014.2 mb 0.00 in0.0 mm 0.00 in0.0 mm 0.19 in4.8 mm
03:45 AM 75.3°F24.1°C -30.0°F-34.4°C 0% 3.0 mph WSW4.8 kmh WSW 16.0 mph25.7 kmh 29.95 in1014.2 mb 0.01 in0.3 mm 0.12 in3.0 mm 0.20 in5.1 mm
03:50 AM 74.6°F23.7°C -30.0°F-34.4°C 0% 5.0 mph WSW8.0 kmh WSW 16.0 mph25.7 kmh 29.95 in1014.2 mb 0.04 in1.0 mm 0.36 in9.1 mm 0.23 in5.8 mm
03:55 AM 74.0°F23.3°C -30.0°F-34.4°C 0% 5.0 mph W8.0 kmh W 15.0 mph24.1 kmh 29.95 in1014.2 mb 0.09 in2.3 mm 0.60 in15.2 mm 0.28 in7.1 mm
04:00 AM 73.7°F23.2°C -30.0°F-34.4°C 0% 3.0 mph WNW4.8 kmh WNW 9.0 mph14.5 kmh 29.95 in1014.2 mb 0.11 in2.8 mm 0.02 in0.5 mm 0.30 in7.6 mm
04:05 AM 73.0°F22.8°C -30.0°F-34.4°C 0% 2.0 mph W3.2 kmh W 6.0 mph9.7 kmh 29.95 in1014.2 mb 0.12 in3.0 mm 0.12 in3.0 mm 0.31 in7.9 mm
04:10 AM 72.6°F22.6°C -30.0°F-34.4°C 0% 2.0 mph W3.2 kmh W 6.0 mph9.7 kmh 29.95 in1014.2 mb 0.13 in3.3 mm 0.12 in3.0 mm 0.32 in8.1 mm
04:15 AM 72.4°F22.4°C -30.0°F-34.4°C 0% 1.0 mph WSW1.6 kmh WSW 4.0 mph6.4 kmh 29.95 in1014.2 mb 0.14 in3.6 mm 0.12 in3.0 mm 0.33 in8.4 mm
04:20 AM 72.3°F22.4°C -30.0°F-34.4°C 0% 1.0 mph WSW1.6 kmh WSW 3.0 mph4.8 kmh 29.95 in1014.2 mb 0.15 in3.8 mm 0.12 in3.0 mm 0.34 in8.6 mm
04:25 AM 72.2°F22.3°C -30.0°F-34.4°C 0% 1.0 mph WSW1.6 kmh WSW 2.0 mph3.2 kmh 29.95 in1014.2 mb 0.15 in3.8 mm 0.00 in0.0 mm 0.34 in8.6 mm
04:30 AM 72.1°F22.3°C -30.0°F-34.4°C 0% Calm Calm 2.0 mph3.2 kmh 29.95 in1014.2 mb 0.15 in3.8 mm 0.00 in0.0 mm 0.34 in8.6 mm
04:35 AM 72.1°F22.3°C -30.0°F-34.4°C 0% 1.0 mph WSW1.6 kmh WSW 4.0 mph6.4 kmh 29.95 in1014.2 mb 0.15 in3.8 mm 0.00 in0.0 mm 0.34 in8.6 mm
04:40 AM 72.1°F22.3°C -30.0°F-34.4°C 0% 2.0 mph WNW3.2 kmh WNW 4.0 mph6.4 kmh 29.95 in1014.2 mb 0.15 in3.8 mm 0.00 in0.0 mm 0.34 in8.6 mm
04:45 AM 72.1°F22.3°C -30.0°F-34.4°C 0% 2.0 mph NW3.2 kmh NW 4.0 mph6.4 kmh 29.95 in1014.2 mb 0.14 in3.6 mm 0.00 in0.0 mm 0.34 in8.6 mm
04:50 AM 72.1°F22.3°C -30.0°F-34.4°C 0% 2.0 mph NW3.2 kmh NW 4.0 mph6.4 kmh 29.95 in1014.2 mb 0.09 in2.3 mm 0.00 in0.0 mm 0.34 in8.6 mm
04:55 AM 72.1°F22.3°C -30.0°F-34.4°C 0% 1.0 mph NW1.6 kmh NW 4.0 mph6.4 kmh 29.96 in1014.6 mb 0.06 in1.5 mm 0.00 in0.0 mm 0.34 in8.6 mm
05:00 AM 72.1°F22.3°C -30.0°F-34.4°C 0% Calm Calm 2.0 mph3.2 kmh 29.96 in1014.6 mb 0.04 in1.0 mm 0.00 in0.0 mm 0.34 in8.6 mm
05:05 AM 72.1°F22.3°C -30.0°F-34.4°C 0% Calm Calm 2.0 mph3.2 kmh 29.95 in1014.2 mb 0.03 in0.8 mm 0.00 in0.0 mm 0.34 in8.6 mm
05:10 AM 72.1°F22.3°C -30.0°F-34.4°C 0% Calm Calm 1.0 mph1.6 kmh 29.95 in1014.2 mb 0.02 in0.5 mm 0.00 in0.0 mm 0.34 in8.6 mm
05:15 AM 72.0°F22.2°C -30.0°F-34.4°C 0% Calm Calm 1.0 mph1.6 kmh 29.96 in1014.6 mb 0.01 in0.3 mm 0.00 in0.0 mm 0.34 in8.6 mm
05:20 AM 71.9°F22.2°C -30.0°F-34.4°C 0% Calm Calm 1.0 mph1.6 kmh 29.96 in1014.6 mb 0.00 in0.0 mm 0.00 in0.0 mm 0.34 in8.6 mm
05:25 AM 71.9°F22.2°C -30.0°F-34.4°C 0% Calm Calm 1.0 mph1.6 kmh 29.96 in1014.6 mb 0.00 in0.0 mm 0.00 in0.0 mm 0.34 in8.6 mm
05:30 AM 71.9°F22.2°C -30.0°F-34.4°C 0% Calm Calm -- 29.96 in1014.6 mb 0.00 in0.0 mm 0.00 in0.0 mm 0.34 in8.6 mm
05:35 AM 72.0°F22.2°C -30.0°F-34.4°C 0% Calm Calm -- 29.96 in1014.6 mb 0.00 in0.0 mm 0.00 in0.0 mm 0.34 in8.6 mm
05:40 AM 72.0°F22.2°C -30.0°F-34.4°C 0% Calm Calm 1.0 mph1.6 kmh 29.96 in1014.6 mb 0.00 in0.0 mm 0.00 in0.0 mm 0.34 in8.6 mm
05:45 AM 72.0°F22.2°C -30.0°F-34.4°C 0% Calm Calm 1.0 mph1.6 kmh 29.97 in1014.9 mb 0.00 in0.0 mm 0.00 in0.0 mm 0.34 in8.6 mm
05:50 AM 72.0°F22.2°C -30.0°F-34.4°C 0% Calm Calm 2.0 mph3.2 kmh 29.97 in1014.9 mb 0.00 in0.0 mm 0.00 in0.0 mm 0.34 in8.6 mm
05:55 AM 72.1°F22.3°C -30.0°F-34.4°C 0% Calm Calm 2.0 mph3.2 kmh 29.96 in1014.6 mb 0.00 in0.0 mm 0.00 in0.0 mm 0.34 in8.6 mm
06:00 AM 72.1°F22.3°C -30.0°F-34.4°C 0% Calm Calm 2.0 mph3.2 kmh 29.97 in1014.9 mb 0.00 in0.0 mm 0.00 in0.0 mm 0.34 in8.6 mm
06:05 AM 72.1°F22.3°C -30.0°F-34.4°C 0% Calm Calm 2.0 mph3.2 kmh 29.97 in1014.9 mb 0.00 in0.0 mm 0.00 in0.0 mm 0.34 in8.6 mm
06:10 AM 72.1°F22.3°C -30.0°F-34.4°C 0% Calm Calm 1.0 mph1.6 kmh 29.97 in1014.9 mb 0.00 in0.0 mm 0.00 in0.0 mm 0.34 in8.6 mm
06:15 AM 72.2°F22.3°C -30.0°F-34.4°C 0% Calm Calm 1.0 mph1.6 kmh 29.97 in1014.9 mb 0.00 in0.0 mm 0.00 in0.0 mm 0.34 in8.6 mm
06:20 AM 72.3°F22.4°C -30.0°F-34.4°C 0% Calm Calm 1.0 mph1.6 kmh 29.97 in1014.9 mb 0.00 in0.0 mm 0.00 in0.0 mm 0.34 in8.6 mm
06:25 AM 72.3°F22.4°C -30.0°F-34.4°C 0% Calm Calm 1.0 mph1.6 kmh 29.98 in1015.2 mb 0.00 in0.0 mm 0.00 in0.0 mm 0.34 in8.6 mm
06:30 AM 72.3°F22.4°C -30.0°F-34.4°C 0% Calm Calm -- 29.98 in1015.2 mb 0.00 in0.0 mm 0.00 in0.0 mm 0.34 in8.6 mm
06:35 AM 72.3°F22.4°C -30.0°F-34.4°C 0% Calm Calm 1.0 mph1.6 kmh 29.98 in1015.2 mb 0.00 in0.0 mm 0.00 in0.0 mm 0.34 in8.6 mm
06:40 AM 72.3°F22.4°C -30.0°F-34.4°C 0% Calm Calm 1.0 mph1.6 kmh 29.98 in1015.2 mb 0.00 in0.0 mm 0.00 in0.0 mm 0.34 in8.6 mm
06:45 AM 72.4°F22.4°C -30.0°F-34.4°C 0% Calm Calm 2.0 mph3.2 kmh 29.98 in1015.2 mb 0.00 in0.0 mm 0.00 in0.0 mm 0.34 in8.6 mm
06:50 AM 72.4°F22.4°C -30.0°F-34.4°C 0% Calm Calm 2.0 mph3.2 kmh 29.98 in1015.2 mb 0.00 in0.0 mm 0.00 in0.0 mm 0.34 in8.6 mm
06:55 AM 72.4°F22.4°C -30.0°F-34.4°C 0% Calm Calm 2.0 mph3.2 kmh 29.98 in1015.2 mb 0.00 in0.0 mm 0.00 in0.0 mm 0.34 in8.6 mm
07:00 AM 72.4°F22.4°C -30.0°F-34.4°C 0% 1.0 mph NW1.6 kmh NW 2.0 mph3.2 kmh 29.98 in1015.2 mb 0.00 in0.0 mm 0.00 in0.0 mm 0.34 in8.6 mm
07:05 AM 72.4°F22.4°C -30.0°F-34.4°C 0% 1.0 mph NW1.6 kmh NW 2.0 mph3.2 kmh 29.98 in1015.2 mb 0.00 in0.0 mm 0.00 in0.0 mm 0.34 in8.6 mm
07:10 AM 72.4°F22.4°C -30.0°F-34.4°C 0% Calm Calm 1.0 mph1.6 kmh 29.98 in1015.2 mb 0.00 in0.0 mm 0.00 in0.0 mm 0.34 in8.6 mm
07:15 AM 72.4°F22.4°C -30.0°F-34.4°C 0% Calm Calm -- 29.98 in1015.2 mb 0.00 in0.0 mm 0.00 in0.0 mm 0.34 in8.6 mm
07:20 AM 72.3°F22.4°C -30.0°F-34.4°C 0% Calm Calm -- 29.99 in1015.6 mb 0.00 in0.0 mm 0.00 in0.0 mm 0.34 in8.6 mm
07:25 AM 72.2°F22.3°C -30.0°F-34.4°C 0% Calm Calm -- 29.99 in1015.6 mb 0.00 in0.0 mm 0.00 in0.0 mm 0.34 in8.6 mm
07:30 AM 72.2°F22.3°C -30.0°F-34.4°C 0% Calm Calm 2.0 mph3.2 kmh 29.99 in1015.6 mb 0.00 in0.0 mm 0.00 in0.0 mm 0.34 in8.6 mm
07:35 AM 72.3°F22.4°C -30.0°F-34.4°C 0% 1.0 mph NW1.6 kmh NW 2.0 mph3.2 kmh 29.99 in1015.6 mb 0.00 in0.0 mm 0.00 in0.0 mm 0.34 in8.6 mm
07:40 AM 72.5°F22.5°C -30.0°F-34.4°C 0% 1.0 mph NW1.6 kmh NW 3.0 mph4.8 kmh 29.99 in1015.6 mb 0.00 in0.0 mm 0.00 in0.0 mm 0.34 in8.6 mm
07:45 AM 72.6°F22.6°C -30.0°F-34.4°C 0% 1.0 mph NW1.6 kmh NW 3.0 mph4.8 kmh 30.00 in1015.9 mb 0.00 in0.0 mm 0.00 in0.0 mm 0.34 in8.6 mm
07:50 AM 72.7°F22.6°C -30.0°F-34.4°C 0% 1.0 mph NW1.6 kmh NW 3.0 mph4.8 kmh 30.00 in1015.9 mb 0.00 in0.0 mm 0.00 in0.0 mm 0.34 in8.6 mm
07:55 AM 72.8°F22.7°C -30.0°F-34.4°C 0% 1.0 mph NW1.6 kmh NW 3.0 mph4.8 kmh 30.00 in1015.9 mb 0.00 in0.0 mm 0.00 in0.0 mm 0.34 in8.6 mm
08:00 AM 72.9°F22.7°C -30.0°F-34.4°C 0% 1.0 mph NW1.6 kmh NW 3.0 mph4.8 kmh 30.00 in1015.9 mb 0.00 in0.0 mm 0.00 in0.0 mm 0.34 in8.6 mm
08:05 AM 72.9°F22.7°C -30.0°F-34.4°C 0% 2.0 mph NW3.2 kmh NW 3.0 mph4.8 kmh 30.00 in1015.9 mb 0.00 in0.0 mm 0.00 in0.0 mm 0.34 in8.6 mm
08:10 AM 72.9°F22.7°C -30.0°F-34.4°C 0% 1.0 mph NW1.6 kmh NW 3.0 mph4.8 kmh 30.01 in1016.3 mb 0.00 in0.0 mm 0.00 in0.0 mm 0.34 in8.6 mm
08:15 AM 72.9°F22.7°C -30.0°F-34.4°C 0% 1.0 mph NW1.6 kmh NW 3.0 mph4.8 kmh 30.01 in1016.3 mb 0.00 in0.0 mm 0.00 in0.0 mm 0.34 in8.6 mm
08:20 AM 72.8°F22.7°C -30.0°F-34.4°C 0% 2.0 mph N3.2 kmh N 6.0 mph9.7 kmh 30.01 in1016.3 mb 0.00 in0.0 mm 0.00 in0.0 mm 0.34 in8.6 mm
08:25 AM 72.7°F22.6°C -30.0°F-34.4°C 0% 2.0 mph N3.2 kmh N 6.0 mph9.7 kmh 30.01 in1016.3 mb 0.00 in0.0 mm 0.00 in0.0 mm 0.34 in8.6 mm
08:30 AM 72.5°F22.5°C -30.0°F-34.4°C 0% 3.0 mph N4.8 kmh N 6.0 mph9.7 kmh 30.01 in1016.3 mb 0.00 in0.0 mm 0.00 in0.0 mm 0.34 in8.6 mm
08:35 AM 72.4°F22.4°C -30.0°F-34.4°C 0% 3.0 mph N4.8 kmh N 6.0 mph9.7 kmh 30.02 in1016.6 mb 0.00 in0.0 mm 0.00 in0.0 mm 0.34 in8.6 mm
08:40 AM 72.3°F22.4°C -30.0°F-34.4°C 0% 3.0 mph N4.8 kmh N 5.0 mph8.0 kmh 30.02 in1016.6 mb 0.00 in0.0 mm 0.00 in0.0 mm 0.34 in8.6 mm
08:45 AM 72.3°F22.4°C -30.0°F-34.4°C 0% 3.0 mph N4.8 kmh N 7.0 mph11.3 kmh 30.02 in1016.6 mb 0.00 in0.0 mm 0.00 in0.0 mm 0.34 in8.6 mm
08:50 AM 71.9°F22.2°C -30.0°F-34.4°C 0% 3.0 mph N4.8 kmh N 7.0 mph11.3 kmh 30.02 in1016.6 mb 0.00 in0.0 mm 0.00 in0.0 mm 0.34 in8.6 mm
08:55 AM 71.5°F21.9°C -30.0°F-34.4°C 0% 4.0 mph N6.4 kmh N 8.0 mph12.9 kmh 30.03 in1016.9 mb 0.00 in0.0 mm 0.00 in0.0 mm 0.34 in8.6 mm
09:00 AM 71.1°F21.7°C -30.0°F-34.4°C 0% 3.0 mph N4.8 kmh N 8.0 mph12.9 kmh 30.03 in1016.9 mb 0.00 in0.0 mm 0.00 in0.0 mm 0.34 in8.6 mm
09:05 AM 70.7°F21.5°C -30.0°F-34.4°C 0% 3.0 mph N4.8 kmh N 8.0 mph12.9 kmh 30.03 in1016.9 mb 0.00 in0.0 mm 0.00 in0.0 mm 0.34 in8.6 mm
09:10 AM 70.4°F21.3°C -30.0°F-34.4°C 0% 3.0 mph NNW4.8 kmh NNW 8.0 mph12.9 kmh 30.03 in1016.9 mb 0.00 in0.0 mm 0.00 in0.0 mm 0.34 in8.6 mm
09:15 AM 70.1°F21.2°C -30.0°F-34.4°C 0% 4.0 mph NNW6.4 kmh NNW 8.0 mph12.9 kmh 30.04 in1017.3 mb 0.00 in0.0 mm 0.00 in0.0 mm 0.34 in8.6 mm
09:20 AM 69.8°F21.0°C -30.0°F-34.4°C 0% 4.0 mph NNW6.4 kmh NNW 8.0 mph12.9 kmh 30.04 in1017.3 mb 0.00 in0.0 mm 0.00 in0.0 mm 0.34 in8.6 mm
09:25 AM 69.5°F20.8°C -30.0°F-34.4°C 0% 4.0 mph NNW6.4 kmh NNW 8.0 mph12.9 kmh 30.04 in1017.3 mb 0.00 in0.0 mm 0.00 in0.0 mm 0.34 in8.6 mm
09:30 AM 69.3°F20.7°C -30.0°F-34.4°C 0% 4.0 mph NNW6.4 kmh NNW 8.0 mph12.9 kmh 30.04 in1017.3 mb 0.00 in0.0 mm 0.00 in0.0 mm 0.34 in8.6 mm
09:35 AM 69.1°F20.6°C -30.0°F-34.4°C 0% 4.0 mph N6.4 kmh N 8.0 mph12.9 kmh 30.05 in1017.6 mb 0.00 in0.0 mm 0.00 in0.0 mm 0.34 in8.6 mm
09:40 AM 69.0°F20.6°C -30.0°F-34.4°C 0% 4.0 mph N6.4 kmh N 8.0 mph12.9 kmh 30.05 in1017.6 mb 0.00 in0.0 mm 0.00 in0.0 mm 0.34 in8.6 mm
09:45 AM 69.0°F20.6°C -30.0°F-34.4°C 0% 3.0 mph N4.8 kmh N 6.0 mph9.7 kmh 30.05 in1017.6 mb 0.00 in0.0 mm 0.00 in0.0 mm 0.34 in8.6 mm
09:50 AM 68.8°F20.4°C -30.0°F-34.4°C 0% 3.0 mph N4.8 kmh N 7.0 mph11.3 kmh 30.05 in1017.6 mb 0.00 in0.0 mm 0.00 in0.0 mm 0.34 in8.6 mm
09:55 AM 68.4°F20.2°C -30.0°F-34.4°C 0% 4.0 mph N6.4 kmh N 8.0 mph12.9 kmh 30.04 in1017.3 mb 0.00 in0.0 mm 0.00 in0.0 mm 0.34 in8.6 mm
10:00 AM 68.2°F20.1°C -30.0°F-34.4°C 0% 4.0 mph NNE6.4 kmh NNE 8.0 mph12.9 kmh 30.04 in1017.3 mb 0.00 in0.0 mm 0.00 in0.0 mm 0.34 in8.6 mm
10:05 AM 68.2°F20.1°C -30.0°F-34.4°C 0% 4.0 mph NE6.4 kmh NE 8.0 mph12.9 kmh 30.04 in1017.3 mb 0.00 in0.0 mm 0.00 in0.0 mm 0.34 in8.6 mm
10:10 AM 68.3°F20.2°C -30.0°F-34.4°C 0% 3.0 mph NE4.8 kmh NE 7.0 mph11.3 kmh 30.04 in1017.3 mb 0.00 in0.0 mm 0.00 in0.0 mm 0.34 in8.6 mm
10:15 AM 68.5°F20.3°C -30.0°F-34.4°C 0% 3.0 mph NE4.8 kmh NE 7.0 mph11.3 kmh 30.04 in1017.3 mb 0.00 in0.0 mm 0.00 in0.0 mm 0.34 in8.6 mm
10:20 AM 68.7°F20.4°C -30.0°F-34.4°C 0% 3.0 mph NE4.8 kmh NE 6.0 mph9.7 kmh 30.04 in1017.3 mb 0.00 in0.0 mm 0.00 in0.0 mm 0.34 in8.6 mm
10:25 AM 68.9°F20.5°C -30.0°F-34.4°C 0% 3.0 mph NE4.8 kmh NE 5.0 mph8.0 kmh 30.04 in1017.3 mb 0.00 in0.0 mm 0.00 in0.0 mm 0.34 in8.6 mm
10:30 AM 69.0°F20.6°C -30.0°F-34.4°C 0% 3.0 mph NNE4.8 kmh NNE 7.0 mph11.3 kmh 30.04 in1017.3 mb 0.00 in0.0 mm 0.00 in0.0 mm 0.34 in8.6 mm
10:35 AM 69.1°F20.6°C -30.0°F-34.4°C 0% 3.0 mph NNE4.8 kmh NNE 7.0 mph11.3 kmh 30.04 in1017.3 mb 0.00 in0.0 mm 0.00 in0.0 mm 0.34 in8.6 mm
10:40 AM 69.2°F20.7°C -30.0°F-34.4°C 0% 3.0 mph NE4.8 kmh NE 8.0 mph12.9 kmh 30.04 in1017.3 mb 0.00 in0.0 mm 0.00 in0.0 mm 0.34 in8.6 mm
10:45 AM 69.4°F20.8°C -30.0°F-34.4°C 0% 4.0 mph NNE6.4 kmh NNE 8.0 mph12.9 kmh 30.04 in1017.3 mb 0.00 in0.0 mm 0.00 in0.0 mm 0.34 in8.6 mm
10:50 AM 69.6°F20.9°C -30.0°F-34.4°C 0% 4.0 mph NNE6.4 kmh NNE 8.0 mph12.9 kmh 30.04 in1017.3 mb 0.00 in0.0 mm 0.00 in0.0 mm 0.34 in8.6 mm
10:55 AM 69.9°F21.1°C -30.0°F-34.4°C 0% 4.0 mph NE6.4 kmh NE 8.0 mph12.9 kmh 30.04 in1017.3 mb 0.00 in0.0 mm 0.00 in0.0 mm 0.34 in8.6 mm
11:00 AM 70.0°F21.1°C -30.0°F-34.4°C 0% 4.0 mph NE6.4 kmh NE 8.0 mph12.9 kmh 30.04 in1017.3 mb 0.00 in0.0 mm 0.00 in0.0 mm 0.34 in8.6 mm
11:05 AM 70.2°F21.2°C -30.0°F-34.4°C 0% 4.0 mph NE6.4 kmh NE 7.0 mph11.3 kmh 30.03 in1016.9 mb 0.00 in0.0 mm 0.00 in0.0 mm 0.34 in8.6 mm
11:10 AM 70.4°F21.3°C -30.0°F-34.4°C 0% 4.0 mph NE6.4 kmh NE 7.0 mph11.3 kmh 30.03 in1016.9 mb 0.00 in0.0 mm 0.00 in0.0 mm 0.34 in8.6 mm
11:15 AM 70.8°F21.6°C -30.0°F-34.4°C 0% 4.0 mph NNE6.4 kmh NNE 7.0 mph11.3 kmh 30.03 in1016.9 mb 0.00 in0.0 mm 0.00 in0.0 mm 0.34 in8.6 mm
11:20 AM 71.2°F21.8°C -30.0°F-34.4°C 0% 4.0 mph NNE6.4 kmh NNE 7.0 mph11.3 kmh 30.03 in1016.9 mb 0.00 in0.0 mm 0.00 in0.0 mm 0.34 in8.6 mm
11:25 AM 71.9°F22.2°C -30.0°F-34.4°C 0% 4.0 mph NNE6.4 kmh NNE 7.0 mph11.3 kmh 30.03 in1016.9 mb 0.00 in0.0 mm 0.00 in0.0 mm 0.34 in8.6 mm
11:30 AM 72.4°F22.4°C 25.1°F-3.8°C 17% 4.0 mph NNE6.4 kmh NNE 6.0 mph9.7 kmh 30.03 in1016.9 mb 0.00 in0.0 mm 0.00 in0.0 mm 0.34 in8.6 mm
11:35 AM 72.6°F22.6°C 31.5°F-0.3°C 22% 4.0 mph NNE6.4 kmh NNE 6.0 mph9.7 kmh 30.03 in1016.9 mb 0.00 in0.0 mm 0.00 in0.0 mm 0.34 in8.6 mm
11:40 AM 72.4°F22.4°C 31.4°F-0.3°C 22% 3.0 mph N4.8 kmh N 6.0 mph9.7 kmh 30.03 in1016.9 mb 0.00 in0.0 mm 0.00 in0.0 mm 0.34 in8.6 mm
11:45 AM 72.3°F22.4°C 34.5°F1.4°C 25% 3.0 mph N4.8 kmh N 6.0 mph9.7 kmh 30.03 in1016.9 mb 0.00 in0.0 mm 0.00 in0.0 mm 0.34 in8.6 mm
11:50 AM 72.2°F22.3°C 32.3°F0.2°C 23% 4.0 mph NNE6.4 kmh NNE 8.0 mph12.9 kmh 30.02 in1016.6 mb 0.00 in0.0 mm 0.00 in0.0 mm 0.34 in8.6 mm
11:55 AM 72.3°F22.4°C 30.1°F-1.1°C 21% 3.0 mph NE4.8 kmh NE 8.0 mph12.9 kmh 30.02 in1016.6 mb 0.00 in0.0 mm 0.00 in0.0 mm 0.34 in8.6 mm
12:00 PM 72.4°F22.4°C 27.8°F-2.3°C 19% 3.0 mph NE4.8 kmh NE 6.0 mph9.7 kmh 30.02 in1016.6 mb 0.00 in0.0 mm 0.00 in0.0 mm 0.34 in8.6 mm
12:05 PM 72.7°F22.6°C 36.8°F2.7°C 27% 3.0 mph NNE4.8 kmh NNE 7.0 mph11.3 kmh 30.02 in1016.6 mb 0.00 in0.0 mm 0.00 in0.0 mm 0.34 in8.6 mm
12:10 PM 72.9°F22.7°C 32.9°F0.5°C 23% 3.0 mph NNE4.8 kmh NNE 7.0 mph11.3 kmh 30.01 in1016.3 mb 0.00 in0.0 mm 0.00 in0.0 mm 0.34 in8.6 mm
12:15 PM 73.1°F22.8°C 38.0°F3.3°C 28% 2.0 mph NE3.2 kmh NE 6.0 mph9.7 kmh 30.01 in1016.3 mb 0.00 in0.0 mm 0.00 in0.0 mm 0.34 in8.6 mm
12:20 PM 73.5°F23.1°C 36.5°F2.5°C 26% 2.0 mph NE3.2 kmh NE 6.0 mph9.7 kmh 30.00 in1015.9 mb 0.00 in0.0 mm 0.00 in0.0 mm 0.34 in8.6 mm
12:25 PM 73.9°F23.3°C 41.3°F5.2°C 31% 3.0 mph NE4.8 kmh NE 6.0 mph9.7 kmh 30.00 in1015.9 mb 0.00 in0.0 mm 0.00 in0.0 mm 0.34 in8.6 mm
12:30 PM 74.3°F23.5°C 46.3°F7.9°C 37% 3.0 mph N4.8 kmh N 6.0 mph9.7 kmh 30.00 in1015.9 mb 0.00 in0.0 mm 0.00 in0.0 mm 0.34 in8.6 mm
12:35 PM 74.5°F23.6°C 45.0°F7.2°C 35% 3.0 mph N4.8 kmh N 6.0 mph9.7 kmh 30.00 in1015.9 mb 0.00 in0.0 mm 0.00 in0.0 mm 0.34 in8.6 mm
12:40 PM 74.6°F23.7°C 39.3°F4.1°C 28% 2.0 mph NNE3.2 kmh NNE 5.0 mph8.0 kmh 29.99 in1015.6 mb 0.00 in0.0 mm 0.00 in0.0 mm 0.34 in8.6 mm
12:45 PM 75.3°F24.1°C 45.0°F7.2°C 34% 1.0 mph NE1.6 kmh NE 4.0 mph6.4 kmh 29.99 in1015.6 mb 0.00 in0.0 mm 0.00 in0.0 mm 0.34 in8.6 mm
12:50 PM 75.8°F24.3°C 51.7°F10.9°C 43% 2.0 mph NE3.2 kmh NE 5.0 mph8.0 kmh 29.98 in1015.2 mb 0.00 in0.0 mm 0.00 in0.0 mm 0.34 in8.6 mm
12:55 PM 76.2°F24.6°C 52.1°F11.2°C 43% 2.0 mph NNE3.2 kmh NNE 5.0 mph8.0 kmh 29.98 in1015.2 mb 0.00 in0.0 mm 0.00 in0.0 mm 0.34 in8.6 mm
01:00 PM 76.4°F24.7°C 54.1°F12.3°C 46% 2.0 mph NNE3.2 kmh NNE 5.0 mph8.0 kmh 29.98 in1015.2 mb 0.00 in0.0 mm 0.00 in0.0 mm 0.34 in8.6 mm
01:05 PM 76.4°F24.7°C 55.3°F12.9°C 48% 3.0 mph N4.8 kmh N 5.0 mph8.0 kmh 29.98 in1015.2 mb 0.00 in0.0 mm 0.00 in0.0 mm 0.34 in8.6 mm
01:10 PM 76.3°F24.6°C 55.2°F12.9°C 48% 3.0 mph N4.8 kmh N 7.0 mph11.3 kmh 29.98 in1015.2 mb 0.00 in0.0 mm 0.00 in0.0 mm 0.34 in8.6 mm
01:15 PM 76.3°F24.6°C 55.2°F12.9°C 48% 3.0 mph N4.8 kmh N 7.0 mph11.3 kmh 29.97 in1014.9 mb 0.00 in0.0 mm 0.00 in0.0 mm 0.34 in8.6 mm
01:20 PM 76.4°F24.7°C 55.3°F12.9°C 48% 3.0 mph NNE4.8 kmh NNE 6.0 mph9.7 kmh 29.97 in1014.9 mb 0.00 in0.0 mm 0.00 in0.0 mm 0.34 in8.6 mm
01:25 PM 76.6°F24.8°C 56.0°F13.3°C 49% 2.0 mph NNE3.2 kmh NNE 6.0 mph9.7 kmh 29.97 in1014.9 mb 0.00 in0.0 mm 0.00 in0.0 mm 0.34 in8.6 mm
01:30 PM 76.9°F24.9°C 56.8°F13.8°C 50% 2.0 mph N3.2 kmh N 5.0 mph8.0 kmh 29.96 in1014.6 mb 0.00 in0.0 mm 0.00 in0.0 mm 0.34 in8.6 mm
01:35 PM 77.0°F25.0°C 58.6°F14.8°C 53% 2.0 mph N3.2 kmh N 6.0 mph9.7 kmh 29.96 in1014.6 mb 0.00 in0.0 mm 0.00 in0.0 mm 0.34 in8.6 mm
01:40 PM 77.0°F25.0°C 59.6°F15.3°C 55% 3.0 mph N4.8 kmh N 6.0 mph9.7 kmh 29.96 in1014.6 mb 0.00 in0.0 mm 0.00 in0.0 mm 0.34 in8.6 mm
01:45 PM 77.2°F25.1°C 56.6°F13.7°C 49% 3.0 mph NNE4.8 kmh NNE 7.0 mph11.3 kmh 29.96 in1014.6 mb 0.00 in0.0 mm 0.00 in0.0 mm 0.34 in8.6 mm
01:50 PM 77.6°F25.3°C 58.6°F14.8°C 52% 3.0 mph NE4.8 kmh NE 7.0 mph11.3 kmh 29.95 in1014.2 mb 0.00 in0.0 mm 0.00 in0.0 mm 0.34 in8.6 mm
01:55 PM 77.8°F25.4°C 57.1°F13.9°C 49% 2.0 mph NNE3.2 kmh NNE 7.0 mph11.3 kmh 29.95 in1014.2 mb 0.00 in0.0 mm 0.00 in0.0 mm 0.34 in8.6 mm
02:00 PM 78.1°F25.6°C 59.6°F15.3°C 53% 2.0 mph NE3.2 kmh NE 7.0 mph11.3 kmh 29.95 in1014.2 mb 0.00 in0.0 mm 0.00 in0.0 mm 0.34 in8.6 mm
02:05 PM 77.9°F25.5°C 60.9°F16.1°C 56% 3.0 mph NE4.8 kmh NE 7.0 mph11.3 kmh 29.95 in1014.2 mb 0.00 in0.0 mm 0.00 in0.0 mm 0.34 in8.6 mm
02:10 PM 77.5°F25.3°C 60.1°F15.6°C 55% 3.0 mph NE4.8 kmh NE 7.0 mph11.3 kmh 29.95 in1014.2 mb 0.00 in0.0 mm 0.00 in0.0 mm 0.34 in8.6 mm
02:15 PM 77.3°F25.2°C 58.8°F14.9°C 53% 3.0 mph NE4.8 kmh NE 7.0 mph11.3 kmh 29.95 in1014.2 mb 0.00 in0.0 mm 0.00 in0.0 mm 0.34 in8.6 mm
02:20 PM 77.0°F25.0°C 57.5°F14.2°C 51% 3.0 mph NNE4.8 kmh NNE 7.0 mph11.3 kmh 29.95 in1014.2 mb 0.00 in0.0 mm 0.00 in0.0 mm 0.34 in8.6 mm
02:25 PM 76.8°F24.9°C 56.8°F13.8°C 50% 2.0 mph N3.2 kmh N 6.0 mph9.7 kmh 29.95 in1014.2 mb 0.00 in0.0 mm 0.00 in0.0 mm 0.34 in8.6 mm
02:30 PM 76.7°F24.8°C 56.1°F13.4°C 49% 2.0 mph NNE3.2 kmh NNE 5.0 mph8.0 kmh 29.95 in1014.2 mb 0.00 in0.0 mm 0.00 in0.0 mm 0.34 in8.6 mm
02:35 PM 76.3°F24.6°C 56.3°F13.5°C 50% 2.0 mph N3.2 kmh N 5.0 mph8.0 kmh 29.96 in1014.6 mb 0.00 in0.0 mm 0.00 in0.0 mm 0.34 in8.6 mm
02:40 PM 75.8°F24.3°C 54.7°F12.6°C 48% 3.0 mph NNW4.8 kmh NNW 5.0 mph8.0 kmh 29.95 in1014.2 mb 0.00 in0.0 mm 0.00 in0.0 mm 0.34 in8.6 mm
02:45 PM 75.5°F24.2°C 52.1°F11.2°C 44% 2.0 mph NW3.2 kmh NW 5.0 mph8.0 kmh 29.96 in1014.6 mb 0.00 in0.0 mm 0.00 in0.0 mm 0.34 in8.6 mm
02:50 PM 75.7°F24.3°C 51.0°F10.6°C 42% 2.0 mph N3.2 kmh N 5.0 mph8.0 kmh 29.95 in1014.2 mb 0.00 in0.0 mm 0.00 in0.0 mm 0.34 in8.6 mm
02:55 PM 76.3°F24.6°C 50.9°F10.5°C 41% 1.0 mph NE1.6 kmh NE 4.0 mph6.4 kmh 29.95 in1014.2 mb 0.00 in0.0 mm 0.00 in0.0 mm 0.34 in8.6 mm
03:00 PM 76.9°F24.9°C 58.5°F14.7°C 53% 1.0 mph ENE1.6 kmh ENE 5.0 mph8.0 kmh 29.95 in1014.2 mb 0.00 in0.0 mm 0.00 in0.0 mm 0.34 in8.6 mm
03:05 PM 77.1°F25.1°C 59.7°F15.4°C 55% 2.0 mph NE3.2 kmh NE 5.0 mph8.0 kmh 29.95 in1014.2 mb 0.00 in0.0 mm 0.00 in0.0 mm 0.34 in8.6 mm
03:10 PM 76.7°F24.8°C 59.8°F15.4°C 56% 2.0 mph NNE3.2 kmh NNE 5.0 mph8.0 kmh 29.96 in1014.6 mb 0.00 in0.0 mm 0.00 in0.0 mm 0.34 in8.6 mm
03:15 PM 76.4°F24.7°C 58.0°F14.4°C 53% 2.0 mph NNE3.2 kmh NNE 4.0 mph6.4 kmh 29.95 in1014.2 mb 0.00 in0.0 mm 0.00 in0.0 mm 0.34 in8.6 mm
03:20 PM 76.4°F24.7°C 56.9°F13.8°C 51% 1.0 mph NNE1.6 kmh NNE 4.0 mph6.4 kmh 29.95 in1014.2 mb 0.00 in0.0 mm 0.00 in0.0 mm 0.34 in8.6 mm
03:25 PM 76.6°F24.8°C 57.1°F13.9°C 51% 2.0 mph NNE3.2 kmh NNE 4.0 mph6.4 kmh 29.95 in1014.2 mb 0.00 in0.0 mm 0.00 in0.0 mm 0.34 in8.6 mm
03:30 PM 76.9°F24.9°C 58.5°F14.7°C 53% 2.0 mph NNE3.2 kmh NNE 4.0 mph6.4 kmh 29.95 in1014.2 mb 0.00 in0.0 mm 0.00 in0.0 mm 0.34 in8.6 mm
03:35 PM 77.0°F25.0°C 59.6°F15.3°C 55% 2.0 mph NNE3.2 kmh NNE 4.0 mph6.4 kmh 29.96 in1014.6 mb 0.00 in0.0 mm 0.00 in0.0 mm 0.34 in8.6 mm
03:40 PM 76.8°F24.9°C 59.4°F15.2°C 55% 2.0 mph NNE3.2 kmh NNE 4.0 mph6.4 kmh 29.96 in1014.6 mb 0.00 in0.0 mm 0.00 in0.0 mm 0.34 in8.6 mm
03:45 PM 76.4°F24.7°C 59.0°F15.0°C 55% 2.0 mph NNE3.2 kmh NNE 3.0 mph4.8 kmh 29.96 in1014.6 mb 0.00 in0.0 mm 0.00 in0.0 mm 0.34 in8.6 mm
03:50 PM 76.1°F24.5°C 57.2°F14.0°C 52% 2.0 mph NNE3.2 kmh NNE 3.0 mph4.8 kmh 29.97 in1014.9 mb 0.00 in0.0 mm 0.00 in0.0 mm 0.34 in8.6 mm
03:55 PM 76.2°F24.6°C 58.3°F14.6°C 54% 2.0 mph NNE3.2 kmh NNE 4.0 mph6.4 kmh 29.96 in1014.6 mb 0.00 in0.0 mm 0.00 in0.0 mm 0.34 in8.6 mm
04:00 PM 76.7°F24.8°C 59.3°F15.2°C 55% 1.0 mph NNE1.6 kmh NNE 4.0 mph6.4 kmh 29.96 in1014.6 mb 0.00 in0.0 mm 0.00 in0.0 mm 0.34 in8.6 mm
04:05 PM 77.1°F25.1°C 60.2°F15.7°C 56% 1.0 mph N1.6 kmh N 4.0 mph6.4 kmh 29.97 in1014.9 mb 0.00 in0.0 mm 0.00 in0.0 mm 0.34 in8.6 mm
04:10 PM 77.4°F25.2°C 61.9°F16.6°C 59% 2.0 mph NNE3.2 kmh NNE 5.0 mph8.0 kmh 29.97 in1014.9 mb 0.00 in0.0 mm 0.00 in0.0 mm 0.34 in8.6 mm
04:15 PM 77.5°F25.3°C 62.5°F16.9°C 60% 1.0 mph NE1.6 kmh NE 5.0 mph8.0 kmh 29.97 in1014.9 mb 0.00 in0.0 mm 0.00 in0.0 mm 0.34 in8.6 mm
04:20 PM 77.1°F25.1°C 63.1°F17.3°C 62% 2.0 mph NE3.2 kmh NE 5.0 mph8.0 kmh 29.97 in1014.9 mb 0.00 in0.0 mm 0.00 in0.0 mm 0.34 in8.6 mm
04:25 PM 76.4°F24.7°C 62.9°F17.2°C 63% 3.0 mph NE4.8 kmh NE 7.0 mph11.3 kmh 29.98 in1015.2 mb 0.00 in0.0 mm 0.00 in0.0 mm 0.34 in8.6 mm
04:30 PM 75.9°F24.4°C 61.9°F16.6°C 62% 3.0 mph NE4.8 kmh NE 8.0 mph12.9 kmh 29.98 in1015.2 mb 0.00 in0.0 mm 0.00 in0.0 mm 0.34 in8.6 mm
04:35 PM 75.5°F24.2°C 60.6°F15.9°C 60% 3.0 mph NE4.8 kmh NE 8.0 mph12.9 kmh 29.98 in1015.2 mb 0.00 in0.0 mm 0.00 in0.0 mm 0.34 in8.6 mm
04:40 PM 75.0°F23.9°C 59.7°F15.4°C 59% 3.0 mph NNE4.8 kmh NNE 6.0 mph9.7 kmh 29.98 in1015.2 mb 0.00 in0.0 mm 0.00 in0.0 mm 0.34 in8.6 mm
04:45 PM 74.7°F23.7°C 58.9°F14.9°C 58% 2.0 mph NE3.2 kmh NE 6.0 mph9.7 kmh 29.98 in1015.2 mb 0.00 in0.0 mm 0.00 in0.0 mm 0.34 in8.6 mm
04:50 PM 74.4°F23.6°C 57.7°F14.3°C 56% 2.0 mph NE3.2 kmh NE 5.0 mph8.0 kmh 29.98 in1015.2 mb 0.00 in0.0 mm 0.00 in0.0 mm 0.34 in8.6 mm
04:55 PM 74.1°F23.4°C 56.9°F13.8°C 55% 2.0 mph NNE3.2 kmh NNE 5.0 mph8.0 kmh 29.98 in1015.2 mb 0.00 in0.0 mm 0.00 in0.0 mm 0.34 in8.6 mm
05:00 PM 73.7°F23.2°C 57.5°F14.2°C 57% 2.0 mph N3.2 kmh N 5.0 mph8.0 kmh 29.98 in1015.2 mb 0.00 in0.0 mm 0.00 in0.0 mm 0.34 in8.6 mm
05:05 PM 73.4°F23.0°C 58.2°F14.6°C 59% 3.0 mph N4.8 kmh N 6.0 mph9.7 kmh 29.99 in1015.6 mb 0.00 in0.0 mm 0.00 in0.0 mm 0.34 in8.6 mm
05:10 PM 73.0°F22.8°C 58.8°F14.9°C 61% 3.0 mph N4.8 kmh N 6.0 mph9.7 kmh 29.99 in1015.6 mb 0.00 in0.0 mm 0.00 in0.0 mm 0.34 in8.6 mm
05:15 PM 72.9°F22.7°C 57.7°F14.3°C 59% 3.0 mph N4.8 kmh N 6.0 mph9.7 kmh 29.99 in1015.6 mb 0.00 in0.0 mm 0.00 in0.0 mm 0.34 in8.6 mm
05:20 PM 72.7°F22.6°C 57.5°F14.2°C 59% 2.0 mph N3.2 kmh N 4.0 mph6.4 kmh 29.99 in1015.6 mb 0.00 in0.0 mm 0.00 in0.0 mm 0.34 in8.6 mm
05:25 PM 72.6°F22.6°C 57.0°F13.9°C 58% 2.0 mph N3.2 kmh N 4.0 mph6.4 kmh 29.99 in1015.6 mb 0.00 in0.0 mm 0.00 in0.0 mm 0.34 in8.6 mm
05:30 PM 72.3°F22.4°C 57.2°F14.0°C 59% 2.0 mph N3.2 kmh N 6.0 mph9.7 kmh 29.99 in1015.6 mb 0.00 in0.0 mm 0.00 in0.0 mm 0.34 in8.6 mm
05:35 PM 72.1°F22.3°C 56.5°F13.6°C 58% 2.0 mph N3.2 kmh N 6.0 mph9.7 kmh 29.99 in1015.6 mb 0.00 in0.0 mm 0.00 in0.0 mm 0.34 in8.6 mm
05:40 PM 72.0°F22.2°C 55.9°F13.3°C 57% 3.0 mph N4.8 kmh N 5.0 mph8.0 kmh 29.99 in1015.6 mb 0.00 in0.0 mm 0.00 in0.0 mm 0.34 in8.6 mm
05:45 PM 71.8°F22.1°C 54.8°F12.7°C 55% 3.0 mph N4.8 kmh N 6.0 mph9.7 kmh 29.99 in1015.6 mb 0.00 in0.0 mm 0.00 in0.0 mm 0.34 in8.6 mm
05:50 PM 71.7°F22.1°C 53.7°F12.1°C 53% 2.0 mph N3.2 kmh N 6.0 mph9.7 kmh 29.99 in1015.6 mb 0.00 in0.0 mm 0.00 in0.0 mm 0.34 in8.6 mm
05:55 PM 71.4°F21.9°C 54.4°F12.4°C 55% 2.0 mph N3.2 kmh N 6.0 mph9.7 kmh 30.00 in1015.9 mb 0.00 in0.0 mm 0.00 in0.0 mm 0.34 in8.6 mm
06:00 PM 71.2°F21.8°C 54.7°F12.6°C 56% 3.0 mph N4.8 kmh N 8.0 mph12.9 kmh 30.00 in1015.9 mb 0.00 in0.0 mm 0.00 in0.0 mm 0.34 in8.6 mm
06:05 PM 71.0°F21.7°C 55.0°F12.8°C 57% 4.0 mph N6.4 kmh N 8.0 mph12.9 kmh 30.00 in1015.9 mb 0.00 in0.0 mm 0.00 in0.0 mm 0.34 in8.6 mm
06:10 PM 70.9°F21.6°C 54.9°F12.7°C 57% 3.0 mph NNW4.8 kmh NNW 8.0 mph12.9 kmh 30.00 in1015.9 mb 0.00 in0.0 mm 0.00 in0.0 mm 0.34 in8.6 mm
06:15 PM 70.7°F21.5°C 55.7°F13.2°C 59% 4.0 mph N6.4 kmh N 9.0 mph14.5 kmh 30.01 in1016.3 mb 0.00 in0.0 mm 0.00 in0.0 mm 0.34 in8.6 mm
06:20 PM 70.5°F21.4°C 56.9°F13.8°C 62% 4.0 mph N6.4 kmh N 9.0 mph14.5 kmh 30.01 in1016.3 mb 0.00 in0.0 mm 0.00 in0.0 mm 0.34 in8.6 mm
06:25 PM 70.5°F21.4°C 56.4°F13.6°C 61% 3.0 mph N4.8 kmh N 8.0 mph12.9 kmh 30.01 in1016.3 mb 0.00 in0.0 mm 0.00 in0.0 mm 0.34 in8.6 mm
06:30 PM 70.3°F21.3°C 56.2°F13.4°C 61% 3.0 mph N4.8 kmh N 7.0 mph11.3 kmh 30.01 in1016.3 mb 0.00 in0.0 mm 0.00 in0.0 mm 0.34 in8.6 mm
06:35 PM 70.3°F21.3°C 56.2°F13.4°C 61% 3.0 mph N4.8 kmh N 6.0 mph9.7 kmh 30.02 in1016.6 mb 0.00 in0.0 mm 0.00 in0.0 mm 0.34 in8.6 mm
06:40 PM 70.1°F21.2°C 56.0°F13.3°C 61% 2.0 mph N3.2 kmh N 5.0 mph8.0 kmh 30.02 in1016.6 mb 0.00 in0.0 mm 0.00 in0.0 mm 0.34 in8.6 mm
06:45 PM 70.0°F21.1°C 55.9°F13.3°C 61% 2.0 mph N3.2 kmh N 5.0 mph8.0 kmh 30.02 in1016.6 mb 0.00 in0.0 mm 0.00 in0.0 mm 0.34 in8.6 mm
06:50 PM 69.9°F21.1°C 55.4°F13.0°C 60% 2.0 mph N3.2 kmh N 5.0 mph8.0 kmh 30.02 in1016.6 mb 0.00 in0.0 mm 0.00 in0.0 mm 0.34 in8.6 mm
06:55 PM 69.7°F20.9°C 55.6°F13.1°C 61% 2.0 mph N3.2 kmh N 5.0 mph8.0 kmh 30.02 in1016.6 mb 0.00 in0.0 mm 0.00 in0.0 mm 0.34 in8.6 mm
07:00 PM 69.6°F20.9°C 55.1°F12.8°C 60% 1.0 mph NNE1.6 kmh NNE 5.0 mph8.0 kmh 30.02 in1016.6 mb 0.00 in0.0 mm 0.00 in0.0 mm 0.34 in8.6 mm
07:05 PM 69.4°F20.8°C 54.4°F12.4°C 59% 1.0 mph NNE1.6 kmh NNE 3.0 mph4.8 kmh 30.02 in1016.6 mb 0.00 in0.0 mm 0.00 in0.0 mm 0.34 in8.6 mm
07:10 PM 69.2°F20.7°C 54.3°F12.4°C 59% 1.0 mph NNE1.6 kmh NNE 3.0 mph4.8 kmh 30.02 in1016.6 mb 0.00 in0.0 mm 0.00 in0.0 mm 0.34 in8.6 mm
07:15 PM 69.0°F20.6°C 52.6°F11.4°C 56% 1.0 mph NNE1.6 kmh NNE 3.0 mph4.8 kmh 30.02 in1016.6 mb 0.00 in0.0 mm 0.00 in0.0 mm 0.34 in8.6 mm
07:20 PM 68.8°F20.4°C 52.5°F11.4°C 56% 1.0 mph NNE1.6 kmh NNE 3.0 mph4.8 kmh 30.02 in1016.6 mb 0.00 in0.0 mm 0.00 in0.0 mm 0.34 in8.6 mm
07:25 PM 68.7°F20.4°C 51.4°F10.8°C 54% 1.0 mph NNE1.6 kmh NNE 2.0 mph3.2 kmh 30.02 in1016.6 mb 0.00 in0.0 mm 0.00 in0.0 mm 0.34 in8.6 mm
07:30 PM 68.4°F20.2°C 51.1°F10.6°C 54% Calm Calm 2.0 mph3.2 kmh 30.02 in1016.6 mb 0.00 in0.0 mm 0.00 in0.0 mm 0.34 in8.6 mm
07:35 PM 68.2°F20.1°C 50.4°F10.2°C 53% Calm Calm 2.0 mph3.2 kmh 30.02 in1016.6 mb 0.00 in0.0 mm 0.00 in0.0 mm 0.34 in8.6 mm
07:40 PM 68.0°F20.0°C 49.7°F9.8°C 52% Calm Calm 1.0 mph1.6 kmh 30.02 in1016.6 mb 0.00 in0.0 mm 0.00 in0.0 mm 0.34 in8.6 mm
07:45 PM 67.6°F19.8°C 48.3°F9.1°C 50% Calm Calm 1.0 mph1.6 kmh 30.02 in1016.6 mb 0.00 in0.0 mm 0.00 in0.0 mm 0.34 in8.6 mm
07:50 PM 67.2°F19.6°C 46.3°F7.9°C 47% Calm Calm 1.0 mph1.6 kmh 30.02 in1016.6 mb 0.00 in0.0 mm 0.00 in0.0 mm 0.34 in8.6 mm
07:55 PM 66.8°F19.3°C 44.2°F6.8°C 44% Calm Calm 1.0 mph1.6 kmh 30.02 in1016.6 mb 0.00 in0.0 mm 0.00 in0.0 mm 0.34 in8.6 mm
08:00 PM 66.3°F19.1°C 39.9°F4.4°C 38% Calm Calm 1.0 mph1.6 kmh 30.02 in1016.6 mb 0.00 in0.0 mm 0.00 in0.0 mm 0.34 in8.6 mm
08:05 PM 66.0°F18.9°C 38.3°F3.5°C 36% Calm Calm 1.0 mph1.6 kmh 30.02 in1016.6 mb 0.00 in0.0 mm 0.00 in0.0 mm 0.34 in8.6 mm
08:10 PM 65.6°F18.7°C 34.9°F1.6°C 32% Calm Calm 1.0 mph1.6 kmh 30.02 in1016.6 mb 0.00 in0.0 mm 0.00 in0.0 mm 0.34 in8.6 mm
08:15 PM 65.2°F18.4°C 33.8°F1.0°C 31% Calm Calm 1.0 mph1.6 kmh 30.03 in1016.9 mb 0.00 in0.0 mm 0.00 in0.0 mm 0.34 in8.6 mm
08:20 PM 64.8°F18.2°C 30.9°F-0.6°C 28% Calm Calm 1.0 mph1.6 kmh 30.03 in1016.9 mb 0.00 in0.0 mm 0.00 in0.0 mm 0.34 in8.6 mm
08:25 PM 64.4°F18.0°C 23.6°F-4.7°C 21% Calm Calm 1.0 mph1.6 kmh 30.03 in1016.9 mb 0.00 in0.0 mm 0.00 in0.0 mm 0.34 in8.6 mm
08:30 PM 64.1°F17.8°C 19.7°F-6.8°C 18% Calm Calm 1.0 mph1.6 kmh 30.03 in1016.9 mb 0.00 in0.0 mm 0.00 in0.0 mm 0.34 in8.6 mm
08:35 PM 63.8°F17.7°C 15.2°F-9.3°C 15% Calm Calm 1.0 mph1.6 kmh 30.03 in1016.9 mb 0.00 in0.0 mm 0.00 in0.0 mm 0.34 in8.6 mm
08:40 PM 63.5°F17.5°C 5.9°F-14.5°C 10% Calm Calm 1.0 mph1.6 kmh 30.03 in1016.9 mb 0.00 in0.0 mm 0.00 in0.0 mm 0.34 in8.6 mm
08:45 PM 63.4°F17.4°C -19.1°F-28.4°C 3% Calm Calm 1.0 mph1.6 kmh 30.04 in1017.3 mb 0.00 in0.0 mm 0.00 in0.0 mm 0.34 in8.6 mm
08:50 PM 63.2°F17.3°C -39.4°F-39.7°C 1% 1.0 mph NNE1.6 kmh NNE 2.0 mph3.2 kmh 30.04 in1017.3 mb 0.00 in0.0 mm 0.00 in0.0 mm 0.34 in8.6 mm
08:55 PM 63.1°F17.3°C -39.4°F-39.7°C 0% 1.0 mph NNE1.6 kmh NNE 2.0 mph3.2 kmh 30.04 in1017.3 mb 0.00 in0.0 mm 0.00 in0.0 mm 0.34 in8.6 mm
09:00 PM 63.0°F17.2°C -39.4°F-39.7°C 0% 1.0 mph NNE1.6 kmh NNE 4.0 mph6.4 kmh 30.04 in1017.3 mb 0.00 in0.0 mm 0.00 in0.0 mm 0.34 in8.6 mm
09:05 PM 62.8°F17.1°C 3.0°F-16.1°C 9% 2.0 mph N3.2 kmh N 5.0 mph8.0 kmh 30.05 in1017.6 mb 0.00 in0.0 mm 0.00 in0.0 mm 0.34 in8.6 mm
09:10 PM 62.9°F17.2°C 21.2°F-6.0°C 20% 2.0 mph N3.2 kmh N 6.0 mph9.7 kmh 30.05 in1017.6 mb 0.00 in0.0 mm 0.00 in0.0 mm 0.34 in8.6 mm
09:15 PM 63.1°F17.3°C 25.7°F-3.5°C 24% 2.0 mph NNW3.2 kmh NNW 6.0 mph9.7 kmh 30.05 in1017.6 mb 0.00 in0.0 mm 0.00 in0.0 mm 0.34 in8.6 mm
09:20 PM 63.2°F17.3°C 28.6°F-1.9°C 27% 2.0 mph NNW3.2 kmh NNW 4.0 mph6.4 kmh 30.05 in1017.6 mb 0.00 in0.0 mm 0.00 in0.0 mm 0.34 in8.6 mm
09:25 PM 63.5°F17.5°C 27.0°F-2.8°C 25% 2.0 mph NW3.2 kmh NW 6.0 mph9.7 kmh 30.05 in1017.6 mb 0.00 in0.0 mm 0.00 in0.0 mm 0.34 in8.6 mm
09:30 PM 63.8°F17.7°C 31.7°F-0.2°C 30% 3.0 mph NNW4.8 kmh NNW 7.0 mph11.3 kmh 30.06 in1017.9 mb 0.00 in0.0 mm 0.00 in0.0 mm 0.34 in8.6 mm
09:35 PM 64.1°F17.8°C 37.3°F2.9°C 37% 3.0 mph NNW4.8 kmh NNW 7.0 mph11.3 kmh 30.06 in1017.9 mb 0.00 in0.0 mm 0.00 in0.0 mm 0.34 in8.6 mm
09:40 PM 64.4°F18.0°C 40.2°F4.6°C 41% 4.0 mph NNW6.4 kmh NNW 8.0 mph12.9 kmh 30.06 in1017.9 mb 0.00 in0.0 mm 0.00 in0.0 mm 0.34 in8.6 mm
09:45 PM 64.7°F18.2°C 41.7°F5.4°C 43% 4.0 mph NNW6.4 kmh NNW 8.0 mph12.9 kmh 30.07 in1018.3 mb 0.00 in0.0 mm 0.00 in0.0 mm 0.34 in8.6 mm
09:50 PM 64.9°F18.3°C 43.0°F6.1°C 45% 4.0 mph NNW6.4 kmh NNW 8.0 mph12.9 kmh 30.07 in1018.3 mb 0.00 in0.0 mm 0.00 in0.0 mm 0.34 in8.6 mm
09:55 PM 64.9°F18.3°C 43.0°F6.1°C 45% 3.0 mph N4.8 kmh N 8.0 mph12.9 kmh 30.07 in1018.3 mb 0.00 in0.0 mm 0.00 in0.0 mm 0.34 in8.6 mm
10:00 PM 64.8°F18.2°C 42.4°F5.8°C 44% 3.0 mph N4.8 kmh N 6.0 mph9.7 kmh 30.07 in1018.3 mb 0.00 in0.0 mm 0.00 in0.0 mm 0.34 in8.6 mm
10:05 PM 64.8°F18.2°C 41.2°F5.1°C 42% 3.0 mph N4.8 kmh N 6.0 mph9.7 kmh 30.08 in1018.6 mb 0.00 in0.0 mm 0.00 in0.0 mm 0.34 in8.6 mm
10:10 PM 64.8°F18.2°C 41.2°F5.1°C 42% 2.0 mph NNW3.2 kmh NNW 6.0 mph9.7 kmh 30.08 in1018.6 mb 0.00 in0.0 mm 0.00 in0.0 mm 0.34 in8.6 mm
10:15 PM 64.8°F18.2°C 39.9°F4.4°C 40% 2.0 mph NNW3.2 kmh NNW 6.0 mph9.7 kmh 30.08 in1018.6 mb 0.00 in0.0 mm 0.00 in0.0 mm 0.34 in8.6 mm
10:20 PM 64.7°F18.2°C 41.1°F5.1°C 42% 2.0 mph N3.2 kmh N 6.0 mph9.7 kmh 30.07 in1018.3 mb 0.00 in0.0 mm 0.00 in0.0 mm 0.34 in8.6 mm
10:25 PM 64.7°F18.2°C 41.1°F5.1°C 42% 2.0 mph N3.2 kmh N 5.0 mph8.0 kmh 30.08 in1018.6 mb 0.00 in0.0 mm 0.00 in0.0 mm 0.34 in8.6 mm
10:30 PM 64.7°F18.2°C 39.2°F4.0°C 39% 2.0 mph N3.2 kmh N 5.0 mph8.0 kmh 30.09 in1019.0 mb 0.00 in0.0 mm 0.00 in0.0 mm 0.34 in8.6 mm
10:35 PM 64.6°F18.1°C 39.1°F3.9°C 39% 2.0 mph NNW3.2 kmh NNW 6.0 mph9.7 kmh 30.08 in1018.6 mb 0.00 in0.0 mm 0.00 in0.0 mm 0.34 in8.6 mm
10:40 PM 64.5°F18.1°C 38.3°F3.5°C 38% 2.0 mph NNW3.2 kmh NNW 6.0 mph9.7 kmh 30.08 in1018.6 mb 0.00 in0.0 mm 0.00 in0.0 mm 0.34 in8.6 mm
10:45 PM 64.4°F18.0°C 37.5°F3.1°C 37% 1.0 mph NNW1.6 kmh NNW 3.0 mph4.8 kmh 30.08 in1018.6 mb 0.00 in0.0 mm 0.00 in0.0 mm 0.34 in8.6 mm
10:50 PM 64.3°F17.9°C 38.8°F3.8°C 39% 2.0 mph NNW3.2 kmh NNW 6.0 mph9.7 kmh 30.08 in1018.6 mb 0.00 in0.0 mm 0.00 in0.0 mm 0.34 in8.6 mm
10:55 PM 64.2°F17.9°C 38.7°F3.7°C 39% 3.0 mph NNW4.8 kmh NNW 7.0 mph11.3 kmh 30.08 in1018.6 mb 0.00 in0.0 mm 0.00 in0.0 mm 0.34 in8.6 mm
11:00 PM 64.2°F17.9°C 39.4°F4.1°C 40% 3.0 mph NNW4.8 kmh NNW 7.0 mph11.3 kmh 30.08 in1018.6 mb 0.00 in0.0 mm 0.00 in0.0 mm 0.34 in8.6 mm
11:05 PM 64.2°F17.9°C 37.4°F3.0°C 37% 2.0 mph NW3.2 kmh NW 5.0 mph8.0 kmh 30.08 in1018.6 mb 0.00 in0.0 mm 0.00 in0.0 mm 0.34 in8.6 mm
11:10 PM 64.1°F17.8°C 35.1°F1.7°C 34% 2.0 mph NW3.2 kmh NW 5.0 mph8.0 kmh 30.08 in1018.6 mb 0.00 in0.0 mm 0.00 in0.0 mm 0.34 in8.6 mm
11:15 PM 64.2°F17.9°C 36.7°F2.6°C 36% 3.0 mph NW4.8 kmh NW 7.0 mph11.3 kmh 30.08 in1018.6 mb 0.00 in0.0 mm 0.00 in0.0 mm 0.34 in8.6 mm
11:20 PM 64.3°F17.9°C 39.4°F4.1°C 40% 3.0 mph NW4.8 kmh NW 7.0 mph11.3 kmh 30.08 in1018.6 mb 0.00 in0.0 mm 0.00 in0.0 mm 0.34 in8.6 mm
11:25 PM 64.3°F17.9°C 43.1°F6.2°C 46% 3.0 mph NNW4.8 kmh NNW 6.0 mph9.7 kmh 30.08 in1018.6 mb 0.00 in0.0 mm 0.00 in0.0 mm 0.34 in8.6 mm
11:30 PM 64.3°F17.9°C 45.3°F7.4°C 50% 4.0 mph NNW6.4 kmh NNW 7.0 mph11.3 kmh 30.08 in1018.6 mb 0.00 in0.0 mm 0.00 in0.0 mm 0.34 in8.6 mm
11:35 PM 64.3°F17.9°C 47.8°F8.8°C 55% 4.0 mph NNW6.4 kmh NNW 7.0 mph11.3 kmh 30.08 in1018.6 mb 0.00 in0.0 mm 0.00 in0.0 mm 0.34 in8.6 mm
11:40 PM 64.2°F17.9°C 48.6°F9.2°C 57% 3.0 mph NNW4.8 kmh NNW 8.0 mph12.9 kmh 30.08 in1018.6 mb 0.00 in0.0 mm 0.00 in0.0 mm 0.34 in8.6 mm
11:45 PM 64.0°F17.8°C 49.4°F9.7°C 59% 3.0 mph NNW4.8 kmh NNW 8.0 mph12.9 kmh 30.08 in1018.6 mb 0.00 in0.0 mm 0.00 in0.0 mm 0.34 in8.6 mm
11:50 PM 63.9°F17.7°C 49.7°F9.8°C 60% 3.0 mph NNW4.8 kmh NNW 6.0 mph9.7 kmh 30.09 in1019.0 mb 0.00 in0.0 mm 0.00 in0.0 mm 0.34 in8.6 mm
11:55 PM 63.9°F17.7°C 49.7°F9.8°C 60% 3.0 mph NNW4.8 kmh NNW 7.0 mph11.3 kmh 30.09 in1019.0 mb 0.00 in0.0 mm 0.00 in0.0 mm 0.34 in8.6 mm